Time;durP1;ratioP1;P1;durP2;ratioP2;P2;SDS_P1;SDS_P2;PMS_P1;PMS_P2;Temp;Humidity;BMP_temperature;BMP_pressure;BME280_temperature;BME280_humidity;BME280_pressure;Samples;Min_cycle;Max_cycle;Signal;HPM_P1;HPM_P2
2022/08/04 00:00:37;;;;;;;;;;;26.30;99.90;;;;;;5092388;28;19981;-71
2022/08/04 00:03:08;;;;;;;;;;;26.20;99.90;;;;;;5094690;28;19975;-72
2022/08/04 00:05:40;;;;;;;;;;;26.20;99.90;;;;;;5093134;28;19975;-72
2022/08/04 00:08:14;;;;;;;;;;;26.20;99.90;;;;;;5085369;28;20569;-72
2022/08/04 00:10:43;;;;;;;;;;;26.20;99.90;;;;;;5081114;28;19916;-73
2022/08/04 00:13:09;;;;;;;;;;;26.20;99.90;;;;;;5079184;28;19999;-73
2022/08/04 00:15:36;;;;;;;;;;;26.20;99.90;;;;;;5076242;28;19975;-73
2022/08/04 00:18:07;;;;;;;;;;;26.20;99.90;;;;;;5079567;28;20054;-73
2022/08/04 00:20:33;;;;;;;;;;;26.20;99.90;;;;;;5078934;28;19916;-72
2022/08/04 00:23:00;;;;;;;;;;;26.20;99.90;;;;;;5082997;28;19927;-73
2022/08/04 00:25:26;;;;;;;;;;;26.20;99.90;;;;;;5078960;28;19938;-72
2022/08/04 00:27:52;;;;;;;;;;;26.10;99.90;;;;;;5078815;28;19916;-72
2022/08/04 00:30:18;;;;;;;;;;;26.10;99.90;;;;;;5079678;28;19992;-73
2022/08/04 00:32:44;;;;;;;;;;;26.10;99.90;;;;;;5076081;28;20293;-72
2022/08/04 00:35:11;;;;;;;;;;;26.00;99.90;;;;;;5078177;28;20325;-73
2022/08/04 00:37:37;;;;;;;;;;;26.00;99.90;;;;;;5088493;28;20030;-73
2022/08/04 00:40:10;;;;;;;;;;;26.00;99.90;;;;;;5081381;28;19986;-73
2022/08/04 00:42:45;;;;;;;;;;;26.00;99.90;;;;;;5081654;28;20365;-72
2022/08/04 00:45:29;;;;;;;;;;;26.00;99.90;;;;;;5075291;28;20322;-73
2022/08/04 00:47:57;;;;;;;;;;;26.00;99.90;;;;;;5080117;28;19916;-73
2022/08/04 00:50:36;;;;;;;;;;;26.00;99.90;;;;;;5078868;28;19912;-72
2022/08/04 00:53:08;;;;;;;;;;;25.90;99.90;;;;;;5076017;28;19916;-72
2022/08/04 00:55:52;;;;;;;;;;;25.90;99.90;;;;;;5074429;28;19913;-72
2022/08/04 00:58:26;;;;;;;;;;;26.00;99.90;;;;;;5090931;28;20580;-73
2022/08/04 01:00:55;;;;;;;;;;;26.00;99.90;;;;;;5077241;28;19962;-73
2022/08/04 01:03:30;;;;;;;;;;;26.00;99.90;;;;;;5078983;28;19915;-72
2022/08/04 01:06:22;;;;;;;;;;;26.00;99.90;;;;;;5078718;28;20411;-72
2022/08/04 01:09:06;;;;;;;;;;;26.00;99.90;;;;;;5073326;28;19919;-73
2022/08/04 01:11:38;;;;;;;;;;;26.00;99.90;;;;;;5077950;28;19932;-73
2022/08/04 01:14:12;;;;;;;;;;;26.10;99.90;;;;;;5076292;28;19939;-73
2022/08/04 01:16:45;;;;;;;;;;;26.10;99.90;;;;;;5053704;28;20428;-73
2022/08/04 01:19:33;;;;;;;;;;;26.20;99.90;;;;;;5076726;28;19911;-73
2022/08/04 01:22:12;;;;;;;;;;;26.30;99.90;;;;;;5071072;28;21994;-72
2022/08/04 01:24:56;;;;;;;;;;;26.20;99.90;;;;;;5078930;28;20273;-72
2022/08/04 01:27:51;;;;;;;;;;;26.20;99.90;;;;;;5077234;28;19927;-73
2022/08/04 01:30:17;;;;;;;;;;;26.20;99.90;;;;;;5053913;28;19912;-72
2022/08/04 01:32:42;;;;;;;;;;;26.20;99.90;;;;;;5080315;28;19930;-72
2022/08/04 01:35:20;;;;;;;;;;;26.20;99.90;;;;;;5078907;28;19966;-70
2022/08/04 01:37:52;;;;;;;;;;;26.20;99.90;;;;;;5080648;28;20432;-72
2022/08/04 01:40:17;;;;;;;;;;;26.10;99.90;;;;;;5078666;28;20317;-72
2022/08/04 01:42:44;;;;;;;;;;;26.20;99.90;;;;;;5078382;28;19912;-73
2022/08/04 01:45:11;;;;;;;;;;;26.20;99.90;;;;;;5079704;28;20380;-72
2022/08/04 01:47:37;;;;;;;;;;;26.20;99.90;;;;;;5057942;28;20088;-72
2022/08/04 01:50:07;;;;;;;;;;;26.20;99.90;;;;;;5078513;28;20334;-72
2022/08/04 01:52:34;;;;;;;;;;;26.20;99.90;;;;;;5069021;28;19954;-73
2022/08/04 01:55:01;;;;;;;;;;;26.10;99.90;;;;;;5081813;28;20006;-72
2022/08/04 01:57:27;;;;;;;;;;;26.20;99.90;;;;;;5079191;28;19912;-72
2022/08/04 01:59:53;;;;;;;;;;;26.20;99.90;;;;;;5086824;28;19993;-72
2022/08/04 02:02:22;;;;;;;;;;;26.20;99.90;;;;;;5079914;28;20539;-72
2022/08/04 02:04:47;;;;;;;;;;;26.20;99.90;;;;;;5081388;28;19928;-71
2022/08/04 02:07:18;;;;;;;;;;;26.10;99.90;;;;;;5080374;28;20764;-70
2022/08/04 02:09:44;;;;;;;;;;;26.10;99.90;;;;;;5079202;28;19912;-73
2022/08/04 02:12:30;;;;;;;;;;;26.10;99.90;;;;;;5079371;28;19927;-72
2022/08/04 02:14:58;;;;;;;;;;;26.10;99.90;;;;;;5076783;28;19973;-71
2022/08/04 02:17:42;;;;;;;;;;;26.10;99.90;;;;;;5076148;28;19956;-72
2022/08/04 02:20:19;;;;;;;;;;;26.10;99.90;;;;;;5077353;28;19920;-72
2022/08/04 02:22:58;;;;;;;;;;;26.00;99.90;;;;;;5076364;28;20202;-72
2022/08/04 02:25:25;;;;;;;;;;;26.00;99.90;;;;;;5079592;28;19960;-72
2022/08/04 02:27:55;;;;;;;;;;;26.00;99.90;;;;;;5081089;28;19962;-72
2022/08/04 02:30:22;;;;;;;;;;;26.00;99.90;;;;;;5089959;28;19932;-73
2022/08/04 02:32:48;;;;;;;;;;;26.00;99.90;;;;;;5114306;28;20520;-72
2022/08/04 02:35:15;;;;;;;;;;;26.10;99.90;;;;;;5085320;28;19912;-72
2022/08/04 02:37:47;;;;;;;;;;;26.00;99.90;;;;;;5061640;28;19990;-72
2022/08/04 02:40:17;;;;;;;;;;;26.00;99.90;;;;;;5080887;28;19975;-73
2022/08/04 02:42:44;;;;;;;;;;;26.00;99.90;;;;;;5080062;28;19916;-71
2022/08/04 02:45:10;;;;;;;;;;;26.00;99.90;;;;;;5080598;28;19911;-71
2022/08/04 02:47:36;;;;;;;;;;;26.00;99.90;;;;;;5079699;28;19958;-71
2022/08/04 02:50:02;;;;;;;;;;;26.10;99.90;;;;;;5082108;28;20358;-71
2022/08/04 02:52:28;;;;;;;;;;;26.10;99.90;;;;;;5081527;28;19916;-71
2022/08/04 02:54:55;;;;;;;;;;;26.00;99.90;;;;;;5095827;27;19912;-71
2022/08/04 02:57:23;;;;;;;;;;;26.00;99.90;;;;;;5080777;28;19913;-72
2022/08/04 03:00:06;;;;;;;;;;;26.10;99.90;;;;;;5085316;28;19970;-70
2022/08/04 03:02:46;;;;;;;;;;;26.10;99.90;;;;;;5080331;28;19922;-72
2022/08/04 03:05:15;;;;;;;;;;;26.10;99.90;;;;;;5077248;28;20007;-72
2022/08/04 03:07:44;;;;;;;;;;;26.00;99.90;;;;;;5090378;28;19916;-71
2022/08/04 03:10:25;;;;;;;;;;;26.00;99.90;;;;;;5081592;28;19931;-72
2022/08/04 03:13:10;;;;;;;;;;;26.00;99.90;;;;;;5081868;28;20445;-71
2022/08/04 03:15:55;;;;;;;;;;;25.90;99.90;;;;;;5060109;28;20265;-71
2022/08/04 03:18:39;;;;;;;;;;;26.00;99.90;;;;;;5081225;28;19916;-71
2022/08/04 03:21:04;;;;;;;;;;;25.90;99.90;;;;;;5083502;28;19912;-70
2022/08/04 03:23:56;;;;;;;;;;;25.90;99.90;;;;;;5082711;28;19939;-71
2022/08/04 03:26:22;;;;;;;;;;;25.90;99.90;;;;;;5079728;28;19959;-71
2022/08/04 03:28:50;;;;;;;;;;;25.90;99.90;;;;;;5078099;28;19912;-71
2022/08/04 03:31:19;;;;;;;;;;;25.90;99.90;;;;;;5080105;28;20456;-73
2022/08/04 03:34:03;;;;;;;;;;;25.90;99.90;;;;;;5078136;28;19965;-71
2022/08/04 03:36:47;;;;;;;;;;;25.80;99.90;;;;;;5070501;28;20356;-71
2022/08/04 03:39:17;;;;;;;;;;;25.90;99.90;;;;;;5101490;28;19918;-72
2022/08/04 03:42:07;;;;;;;;;;;25.90;99.90;;;;;;5103672;28;20003;-70
2022/08/04 03:44:42;;;;;;;;;;;25.90;99.90;;;;;;5076897;28;19916;-74
2022/08/04 03:47:07;;;;;;;;;;;25.90;99.90;;;;;;5081368;28;19986;-76
2022/08/04 03:49:59;;;;;;;;;;;25.90;99.90;;;;;;5080946;28;19999;-76
2022/08/04 03:55:17;;;;;;;;;;;25.70;99.90;;;;;;5099615;28;19975;-75
2022/08/04 03:57:43;;;;;;;;;;;25.60;99.90;;;;;;5099524;28;19919;-76
2022/08/04 04:00:20;;;;;;;;;;;25.50;99.90;;;;;;5100916;28;20034;-76
2022/08/04 04:02:48;;;;;;;;;;;25.50;99.90;;;;;;5099557;28;20242;-76
2022/08/04 04:05:19;;;;;;;;;;;25.40;99.90;;;;;;5101785;28;20037;-75
2022/08/04 04:07:57;;;;;;;;;;;25.30;99.90;;;;;;5081123;28;20006;-77
2022/08/04 04:10:23;;;;;;;;;;;25.30;99.90;;;;;;5079878;28;19928;-76
2022/08/04 04:13:08;;;;;;;;;;;25.30;99.90;;;;;;5077310;28;19913;-76
2022/08/04 04:15:49;;;;;;;;;;;25.20;99.90;;;;;;5061072;28;20301;-76
2022/08/04 04:18:33;;;;;;;;;;;25.20;99.90;;;;;;5080290;28;19946;-76
2022/08/04 04:20:59;;;;;;;;;;;25.20;99.90;;;;;;5081585;28;19983;-75
2022/08/04 04:23:24;;;;;;;;;;;25.20;99.90;;;;;;5076489;28;20396;-77
2022/08/04 04:26:15;;;;;;;;;;;25.10;99.90;;;;;;5076946;28;20372;-76
2022/08/04 04:29:00;;;;;;;;;;;25.00;99.90;;;;;;5064140;28;19920;-75
2022/08/04 04:31:36;;;;;;;;;;;25.00;99.90;;;;;;5079290;28;19920;-76
2022/08/04 04:34:08;;;;;;;;;;;25.10;99.90;;;;;;5079812;28;19959;-76
2022/08/04 04:36:52;;;;;;;;;;;25.20;99.90;;;;;;5079731;28;20365;-76
2022/08/04 04:39:24;;;;;;;;;;;25.30;99.90;;;;;;5106082;28;19919;-76
2022/08/04 04:41:52;;;;;;;;;;;25.40;99.90;;;;;;5121705;28;19911;-75
2022/08/04 04:44:24;;;;;;;;;;;25.50;99.90;;;;;;5109812;28;19913;-76
2022/08/04 04:46:56;;;;;;;;;;;25.60;99.90;;;;;;5092716;28;19916;-76
2022/08/04 04:49:30;;;;;;;;;;;25.70;99.90;;;;;;5099449;28;19919;-76
2022/08/04 04:52:07;;;;;;;;;;;25.80;99.90;;;;;;5098492;28;19939;-75
2022/08/04 04:54:37;;;;;;;;;;;25.90;99.90;;;;;;5076664;28;20365;-76
2022/08/04 04:57:10;;;;;;;;;;;25.90;99.90;;;;;;5081531;28;20015;-75
2022/08/04 04:59:38;;;;;;;;;;;26.00;99.90;;;;;;5083662;28;20420;-75
2022/08/04 05:02:06;;;;;;;;;;;25.90;99.90;;;;;;5080363;28;19920;-75
2022/08/04 05:04:35;;;;;;;;;;;26.00;99.90;;;;;;5077383;28;19916;-77
2022/08/04 05:07:08;;;;;;;;;;;26.00;99.90;;;;;;5079547;28;19970;-76
2022/08/04 05:09:57;;;;;;;;;;;26.00;99.90;;;;;;5075763;28;19951;-75
2022/08/04 05:12:32;;;;;;;;;;;26.10;99.90;;;;;;5079996;28;20421;-76
2022/08/04 05:14:59;;;;;;;;;;;26.20;99.90;;;;;;5079875;28;20065;-77
2022/08/04 05:17:28;;;;;;;;;;;26.10;99.90;;;;;;5080583;28;19981;-77
2022/08/04 05:19:58;;;;;;;;;;;26.20;99.90;;;;;;5079832;28;20395;-76
2022/08/04 05:22:46;;;;;;;;;;;26.20;99.90;;;;;;5085980;28;19920;-76
2022/08/04 05:25:14;;;;;;;;;;;26.30;99.90;;;;;;5057613;28;20369;-77
2022/08/04 05:27:47;;;;;;;;;;;26.30;99.90;;;;;;5077469;28;20360;-77
2022/08/04 05:30:13;;;;;;;;;;;26.40;99.90;;;;;;5077299;28;20458;-77
2022/08/04 05:32:44;;;;;;;;;;;26.50;99.90;;;;;;5079930;28;20006;-76
2022/08/04 05:35:11;;;;;;;;;;;26.60;99.90;;;;;;5078952;28;20301;-75
2022/08/04 05:37:37;;;;;;;;;;;26.60;99.90;;;;;;5078123;28;19916;-76
2022/08/04 05:40:07;;;;;;;;;;;26.70;99.90;;;;;;5080339;28;19963;-77
2022/08/04 05:42:35;;;;;;;;;;;26.80;99.90;;;;;;5082149;28;20003;-76
2022/08/04 05:45:02;;;;;;;;;;;26.90;99.90;;;;;;5067477;28;19961;-76
2022/08/04 05:47:28;;;;;;;;;;;27.00;99.90;;;;;;5061121;28;20394;-77
2022/08/04 05:49:55;;;;;;;;;;;27.00;99.90;;;;;;5061906;28;20391;-78
2022/08/04 05:52:21;;;;;;;;;;;27.20;99.90;;;;;;5079161;28;20403;-76
2022/08/04 05:54:47;;;;;;;;;;;27.30;99.90;;;;;;5081392;28;19919;-75
2022/08/04 05:57:13;;;;;;;;;;;27.50;99.90;;;;;;5077336;28;19913;-77
2022/08/04 05:59:45;;;;;;;;;;;27.50;99.90;;;;;;5080264;28;19988;-77
2022/08/04 06:02:11;;;;;;;;;;;27.60;99.90;;;;;;5082886;28;19979;-76
2022/08/04 06:04:38;;;;;;;;;;;27.60;99.90;;;;;;5092663;28;19999;-77
2022/08/04 06:07:04;;;;;;;;;;;27.70;99.90;;;;;;5087666;28;19973;-78
2022/08/04 06:09:30;;;;;;;;;;;27.80;99.90;;;;;;5083529;28;19920;-77
2022/08/04 06:11:59;;;;;;;;;;;27.80;99.90;;;;;;5061971;28;19920;-76
2022/08/04 06:14:25;;;;;;;;;;;27.90;99.90;;;;;;5062349;28;19932;-75
2022/08/04 06:16:52;;;;;;;;;;;28.00;99.90;;;;;;5082054;28;19917;-75
2022/08/04 06:19:19;;;;;;;;;;;28.00;99.90;;;;;;5058380;28;19912;-76
2022/08/04 06:21:47;;;;;;;;;;;28.10;99.90;;;;;;5083084;28;19924;-76
2022/08/04 06:24:15;;;;;;;;;;;28.10;99.90;;;;;;5083177;28;20026;-75
2022/08/04 06:26:42;;;;;;;;;;;28.10;99.90;;;;;;5083146;28;19912;-75
2022/08/04 06:29:16;;;;;;;;;;;28.20;99.90;;;;;;5082173;28;19912;-76
2022/08/04 06:31:42;;;;;;;;;;;28.20;99.90;;;;;;5065432;28;19916;-76
2022/08/04 06:34:10;;;;;;;;;;;28.30;99.90;;;;;;5096290;28;19912;-76
2022/08/04 06:36:36;;;;;;;;;;;28.40;99.90;;;;;;5102382;28;20356;-76
2022/08/04 06:39:03;;;;;;;;;;;28.40;99.90;;;;;;5108841;28;19913;-75
2022/08/04 06:41:29;;;;;;;;;;;28.50;99.90;;;;;;5107364;28;19912;-77
2022/08/04 06:43:57;;;;;;;;;;;28.60;99.90;;;;;;5100136;28;20290;-76
2022/08/04 06:46:23;;;;;;;;;;;28.70;99.90;;;;;;5092719;28;19995;-76
2022/08/04 06:48:50;;;;;;;;;;;28.80;99.90;;;;;;5095985;28;20089;-75
2022/08/04 06:51:16;;;;;;;;;;;29.00;99.90;;;;;;5095298;28;19962;-77
2022/08/04 06:53:41;;;;;;;;;;;29.10;99.90;;;;;;5093774;28;19915;-75
2022/08/04 06:56:08;;;;;;;;;;;29.10;99.90;;;;;;5095210;28;19908;-81
2022/08/04 07:01:20;;;;;;;;;;;29.10;99.90;;;;;;5074874;28;19909;-77
2022/08/04 07:03:46;;;;;;;;;;;29.20;99.90;;;;;;5093096;28;19912;-77
2022/08/04 07:06:12;;;;;;;;;;;29.20;99.90;;;;;;5076405;28;19955;-77
2022/08/04 07:08:38;;;;;;;;;;;29.30;99.90;;;;;;5098412;28;19920;-76
2022/08/04 07:11:04;;;;;;;;;;;29.40;99.90;;;;;;5071922;28;19920;-78
2022/08/04 07:13:30;;;;;;;;;;;29.50;99.90;;;;;;5104455;28;20010;-77
2022/08/04 07:15:56;;;;;;;;;;;29.50;99.90;;;;;;5102776;28;19970;-76
2022/08/04 07:18:22;;;;;;;;;;;29.50;99.90;;;;;;5104421;28;19988;-77
2022/08/04 07:20:48;;;;;;;;;;;29.50;99.90;;;;;;5108278;28;19953;-66
2022/08/04 07:23:18;;;;;;;;;;;29.50;99.90;;;;;;5091240;28;19916;-66
2022/08/04 07:25:49;;;;;;;;;;;29.40;99.90;;;;;;5089780;28;20395;-65
2022/08/04 07:28:15;;;;;;;;;;;29.30;99.90;;;;;;5101414;28;19961;-64
2022/08/04 07:30:42;;;;;;;;;;;29.30;99.90;;;;;;5095716;28;19951;-66
2022/08/04 07:33:09;;;;;;;;;;;29.40;99.90;;;;;;5092140;28;19992;-66
2022/08/04 07:35:36;;;;;;;;;;;29.50;99.90;;;;;;5084187;28;19926;-65
2022/08/04 07:38:02;;;;;;;;;;;29.60;99.90;;;;;;5087910;28;20426;-65
2022/08/04 07:40:28;;;;;;;;;;;29.80;99.90;;;;;;5105349;28;19998;-64
2022/08/04 07:42:54;;;;;;;;;;;29.90;99.90;;;;;;5091807;28;20277;-63
2022/08/04 07:45:19;;;;;;;;;;;30.00;99.90;;;;;;5094242;28;19924;-65
2022/08/04 07:47:45;;;;;;;;;;;29.80;99.90;;;;;;5091491;28;19912;-65
2022/08/04 07:50:11;;;;;;;;;;;29.70;99.90;;;;;;5095952;28;19918;-65
2022/08/04 07:52:37;;;;;;;;;;;29.70;99.90;;;;;;5113010;28;19908;-65
2022/08/04 07:55:03;;;;;;;;;;;29.80;99.90;;;;;;5112039;28;20399;-65
2022/08/04 07:57:29;;;;;;;;;;;29.80;99.90;;;;;;5103924;28;20562;-65
2022/08/04 07:59:55;;;;;;;;;;;29.90;99.90;;;;;;5091567;28;19912;-66
2022/08/04 08:02:21;;;;;;;;;;;29.90;99.90;;;;;;5095984;28;19951;-65
2022/08/04 08:04:47;;;;;;;;;;;30.10;99.90;;;;;;5088432;28;20353;-65
2022/08/04 08:07:13;;;;;;;;;;;30.20;99.90;;;;;;5089873;28;19920;-64
2022/08/04 08:09:38;;;;;;;;;;;30.30;99.90;;;;;;5088822;28;19973;-63
2022/08/04 08:12:06;;;;;;;;;;;30.50;99.90;;;;;;5094224;28;19912;-67
2022/08/04 08:14:33;;;;;;;;;;;30.60;99.90;;;;;;5091600;28;19908;-64
2022/08/04 08:17:01;;;;;;;;;;;30.60;99.90;;;;;;5095784;28;19920;-66
2022/08/04 08:19:28;;;;;;;;;;;30.60;99.90;;;;;;5088155;28;19989;-69
2022/08/04 08:21:54;;;;;;;;;;;30.40;99.90;;;;;;5093325;28;20395;-64
2022/08/04 08:24:19;;;;;;;;;;;30.30;99.90;;;;;;5095720;28;19956;-64
2022/08/04 08:26:45;;;;;;;;;;;30.00;99.90;;;;;;5088004;28;19912;-64
2022/08/04 08:29:11;;;;;;;;;;;29.90;99.90;;;;;;5089931;28;19912;-64
2022/08/04 08:31:37;;;;;;;;;;;29.60;99.90;;;;;;5090153;28;19927;-64
2022/08/04 08:34:06;;;;;;;;;;;29.30;99.90;;;;;;5089287;28;19912;-64
2022/08/04 08:36:40;;;;;;;;;;;29.30;99.90;;;;;;5096540;28;19919;-64
2022/08/04 08:39:13;;;;;;;;;;;29.00;99.90;;;;;;5089279;28;19920;-64
2022/08/04 08:41:50;;;;;;;;;;;29.00;99.90;;;;;;5086611;28;20431;-64
2022/08/04 08:44:24;;;;;;;;;;;29.00;99.90;;;;;;5093120;28;20504;-63
2022/08/04 08:47:15;;;;;;;;;;;29.00;99.90;;;;;;5087963;28;20010;-64
2022/08/04 08:49:50;;;;;;;;;;;29.00;99.90;;;;;;5096859;28;19923;-65
2022/08/04 08:52:34;;;;;;;;;;;28.90;99.90;;;;;;5071015;28;20267;-63
2022/08/04 08:55:08;;;;;;;;;;;28.70;99.90;;;;;;5079574;28;19912;-64
2022/08/04 08:57:49;;;;;;;;;;;28.80;99.90;;;;;;5085556;28;20065;-65
2022/08/04 09:00:27;;;;;;;;;;;28.80;99.90;;;;;;5085840;28;19953;-64
2022/08/04 09:02:55;;;;;;;;;;;29.00;99.90;;;;;;5089347;28;20318;-64
2022/08/04 09:05:39;;;;;;;;;;;29.00;99.90;;;;;;5088449;28;19957;-63
2022/08/04 09:08:08;;;;;;;;;;;29.00;99.90;;;;;;5065523;28;19960;-63
2022/08/04 09:10:36;;;;;;;;;;;29.10;99.90;;;;;;5086397;28;19916;-64
2022/08/04 09:13:05;;;;;;;;;;;29.20;99.90;;;;;;5090017;28;19981;-64
2022/08/04 09:15:30;;;;;;;;;;;29.30;99.90;;;;;;5095916;28;19944;-67
2022/08/04 09:18:00;;;;;;;;;;;29.30;99.90;;;;;;5090932;28;20277;-64
2022/08/04 09:20:43;;;;;;;;;;;29.40;99.90;;;;;;5091174;28;19920;-65
2022/08/04 09:23:32;;;;;;;;;;;29.50;99.90;;;;;;5090029;28;20061;-64
2022/08/04 09:26:04;;;;;;;;;;;29.50;99.90;;;;;;5088267;28;19908;-64
2022/08/04 09:28:35;;;;;;;;;;;29.50;99.90;;;;;;5084388;28;19922;-64
2022/08/04 09:31:09;;;;;;;;;;;29.60;99.90;;;;;;5107448;28;19919;-65
2022/08/04 09:33:35;;;;;;;;;;;29.60;99.90;;;;;;5095360;28;19934;-67
2022/08/04 09:36:25;;;;;;;;;;;29.60;99.90;;;;;;5112304;28;19947;-65
2022/08/04 09:39:14;;;;;;;;;;;29.70;99.90;;;;;;5099623;28;19930;-65
2022/08/04 09:41:58;;;;;;;;;;;29.80;99.90;;;;;;5089610;28;19920;-65
2022/08/04 09:44:33;;;;;;;;;;;29.70;99.90;;;;;;5093510;28;19912;-64
2022/08/04 09:47:18;;;;;;;;;;;29.80;99.90;;;;;;5091891;28;19916;-64
2022/08/04 09:49:52;;;;;;;;;;;29.80;99.90;;;;;;5096672;28;20380;-64
2022/08/04 09:52:29;;;;;;;;;;;29.90;99.90;;;;;;5087783;28;19908;-64
2022/08/04 09:55:00;;;;;;;;;;;30.00;99.90;;;;;;5093574;28;20011;-64
2022/08/04 09:57:35;;;;;;;;;;;30.10;99.90;;;;;;5099063;28;19916;-65
2022/08/04 10:00:03;;;;;;;;;;;30.00;99.90;;;;;;5094546;28;19912;-64
2022/08/04 10:02:31;;;;;;;;;;;30.00;99.90;;;;;;5095066;28;19966;-64
2022/08/04 10:04:58;;;;;;;;;;;29.90;99.90;;;;;;5094472;28;19951;-64
2022/08/04 10:07:24;;;;;;;;;;;30.00;99.90;;;;;;5077766;28;19916;-65
2022/08/04 10:10:08;;;;;;;;;;;30.20;99.90;;;;;;5096003;28;20362;-65
2022/08/04 10:12:40;;;;;;;;;;;30.30;99.90;;;;;;5096784;28;19948;-65
2022/08/04 10:15:09;;;;;;;;;;;30.10;99.90;;;;;;5100369;28;19958;-64
2022/08/04 10:17:35;;;;;;;;;;;30.00;99.90;;;;;;5077689;28;19908;-64
2022/08/04 10:20:04;;;;;;;;;;;30.00;99.90;;;;;;5095011;28;19915;-65
2022/08/04 10:22:37;;;;;;;;;;;30.00;99.90;;;;;;5092930;28;19924;-66
2022/08/04 10:25:11;;;;;;;;;;;30.20;99.90;;;;;;5093889;28;20300;-63
2022/08/04 10:27:37;;;;;;;;;;;30.30;99.90;;;;;;5093934;28;19919;-64
2022/08/04 10:30:10;;;;;;;;;;;30.30;99.90;;;;;;5075647;28;19908;-64
2022/08/04 10:32:44;;;;;;;;;;;30.40;99.90;;;;;;5086736;28;19985;-64
2022/08/04 10:35:14;;;;;;;;;;;30.30;99.90;;;;;;5104972;28;20366;-64
2022/08/04 10:37:49;;;;;;;;;;;30.30;99.90;;;;;;5114251;28;20364;-64
2022/08/04 10:43:08;;;;;;;;;;;30.40;99.90;;;;;;5106495;28;20502;-64
2022/08/04 10:45:44;;;;;;;;;;;30.50;99.90;;;;;;5094262;28;20015;-64
2022/08/04 10:48:09;;;;;;;;;;;30.50;99.90;;;;;;5095629;28;20392;-64
2022/08/04 10:50:36;;;;;;;;;;;30.50;99.90;;;;;;5104752;28;19911;-64
2022/08/04 10:53:08;;;;;;;;;;;30.50;99.90;;;;;;5109369;28;20289;-65
2022/08/04 10:55:42;;;;;;;;;;;30.50;99.90;;;;;;5091702;28;19919;-65
2022/08/04 10:58:10;;;;;;;;;;;30.60;99.90;;;;;;5096559;28;19912;-63
2022/08/04 11:00:38;;;;;;;;;;;30.70;99.90;;;;;;5093221;28;19971;-63
2022/08/04 11:03:09;;;;;;;;;;;30.70;99.90;;;;;;5090878;28;19927;-63
2022/08/04 11:05:38;;;;;;;;;;;30.80;99.90;;;;;;5097997;28;19919;-64
2022/08/04 11:08:19;;;;;;;;;;;30.80;99.90;;;;;;5102571;28;20034;-65
2022/08/04 11:11:03;;;;;;;;;;;30.80;99.90;;;;;;5104245;28;19908;-64
2022/08/04 11:13:33;;;;;;;;;;;30.80;99.90;;;;;;5106650;28;20337;-64
2022/08/04 11:16:02;;;;;;;;;;;30.80;99.90;;;;;;5109269;28;20008;-73
2022/08/04 11:18:29;;;;;;;;;;;30.80;99.90;;;;;;5097841;28;19912;-72
2022/08/04 11:21:01;;;;;;;;;;;30.60;99.90;;;;;;5093419;28;19962;-72
2022/08/04 11:23:31;;;;;;;;;;;30.50;99.90;;;;;;5073298;28;19939;-70
2022/08/04 11:26:12;;;;;;;;;;;30.50;99.90;;;;;;5097368;28;19955;-71
2022/08/04 11:28:45;;;;;;;;;;;30.50;99.90;;;;;;5086187;28;19916;-72
2022/08/04 11:31:20;;;;;;;;;;;30.50;99.90;;;;;;5092336;28;19923;-70
2022/08/04 11:33:57;;;;;;;;;;;30.50;99.90;;;;;;5078226;28;19998;-72
2022/08/04 11:36:23;;;;;;;;;;;30.50;99.90;;;;;;5086148;28;21395;-71
2022/08/04 11:38:55;;;;;;;;;;;30.70;99.90;;;;;;5090448;28;19966;-70
2022/08/04 11:41:27;;;;;;;;;;;30.80;99.90;;;;;;5071221;28;19920;-70
2022/08/04 11:43:54;;;;;;;;;;;30.70;99.90;;;;;;5071107;28;20381;-71
2022/08/04 11:46:41;;;;;;;;;;;30.70;99.90;;;;;;5100153;28;19912;-72
2022/08/04 11:49:10;;;;;;;;;;;30.70;99.90;;;;;;5095784;28;19923;-72
2022/08/04 11:51:37;;;;;;;;;;;30.70;99.90;;;;;;5098522;28;19958;-73
2022/08/04 11:54:03;;;;;;;;;;;30.70;99.90;;;;;;5089477;28;19923;-72
2022/08/04 11:56:29;;;;;;;;;;;30.50;99.90;;;;;;5097628;28;19966;-72
2022/08/04 11:58:55;;;;;;;;;;;30.40;99.90;;;;;;5109353;28;19907;-72
2022/08/04 12:01:27;;;;;;;;;;;30.50;99.90;;;;;;5105446;28;20385;-72
2022/08/04 12:03:55;;;;;;;;;;;30.40;99.90;;;;;;5095545;28;19912;-74
2022/08/04 12:06:24;;;;;;;;;;;30.50;99.90;;;;;;5108570;28;19915;-71
2022/08/04 12:09:02;;;;;;;;;;;30.50;99.90;;;;;;5106821;28;19920;-72
2022/08/04 12:11:39;;;;;;;;;;;30.70;99.90;;;;;;5067867;28;19951;-70
2022/08/04 12:14:11;;;;;;;;;;;31.00;99.90;;;;;;5101659;28;19958;-73
2022/08/04 12:17:12;;;;;;;;;;;31.10;99.90;;;;;;5112823;28;19969;-69
2022/08/04 12:19:41;;;;;;;;;;;31.10;99.90;;;;;;5043218;28;20366;-70
2022/08/04 12:22:09;;;;;;;;;;;31.10;99.90;;;;;;5075773;28;20400;-70
2022/08/04 12:24:39;;;;;;;;;;;31.10;99.90;;;;;;5090952;28;19934;-71
2022/08/04 12:27:11;;;;;;;;;;;31.20;99.90;;;;;;5092512;28;20057;-72
2022/08/04 12:29:38;;;;;;;;;;;31.10;99.90;;;;;;5103730;28;19912;-70
2022/08/04 12:32:10;;;;;;;;;;;31.20;99.90;;;;;;5098174;28;20474;-71
2022/08/04 12:34:45;;;;;;;;;;;31.20;99.90;;;;;;5092906;28;19915;-73
2022/08/04 12:37:25;;;;;;;;;;;31.00;99.90;;;;;;5071493;28;19966;-71
2022/08/04 12:39:52;;;;;;;;;;;30.90;99.90;;;;;;5094547;28;19934;-72
2022/08/04 12:42:32;;;;;;;;;;;30.90;99.90;;;;;;5092878;28;19908;-71
2022/08/04 12:45:03;;;;;;;;;;;30.90;99.90;;;;;;5093640;28;19912;-70
2022/08/04 12:47:29;;;;;;;;;;;30.80;99.90;;;;;;5088712;28;19916;-73
2022/08/04 12:50:02;;;;;;;;;;;30.60;99.90;;;;;;5103421;28;19911;-71
2022/08/04 12:52:29;;;;;;;;;;;30.70;99.90;;;;;;5093238;28;19916;-69
2022/08/04 12:54:57;;;;;;;;;;;30.70;99.90;;;;;;5100024;28;20381;-70
2022/08/04 12:57:23;;;;;;;;;;;30.90;99.90;;;;;;5101470;28;19919;-68
2022/08/04 12:59:49;;;;;;;;;;;31.00;99.90;;;;;;5103821;28;19916;-70
2022/08/04 13:02:29;;;;;;;;;;;30.80;99.90;;;;;;5097304;28;19912;-70
2022/08/04 13:04:58;;;;;;;;;;;30.80;99.90;;;;;;5095584;28;19920;-68
2022/08/04 13:07:25;;;;;;;;;;;30.80;99.90;;;;;;5089716;28;19986;-69
2022/08/04 13:09:51;;;;;;;;;;;30.80;99.90;;;;;;5106615;28;19943;-69
2022/08/04 13:12:19;;;;;;;;;;;30.80;99.90;;;;;;5092751;28;19923;-70
2022/08/04 13:14:48;;;;;;;;;;;30.80;99.90;;;;;;5091392;28;19919;-71
2022/08/04 13:17:13;;;;;;;;;;;31.10;99.90;;;;;;5091792;28;19908;-73
2022/08/04 13:19:44;;;;;;;;;;;31.20;99.90;;;;;;5104251;28;20502;-71
2022/08/04 13:22:10;;;;;;;;;;;31.20;99.90;;;;;;5083960;28;20301;-68
2022/08/04 13:24:37;;;;;;;;;;;31.30;99.90;;;;;;5091185;28;19912;-73
2022/08/04 13:27:11;;;;;;;;;;;31.30;99.90;;;;;;5090502;28;19923;-71
2022/08/04 13:29:39;;;;;;;;;;;31.00;99.90;;;;;;5106320;28;19911;-70
2022/08/04 13:32:05;;;;;;;;;;;30.90;99.90;;;;;;5107566;28;20489;-69
2022/08/04 13:34:32;;;;;;;;;;;30.80;99.90;;;;;;5090737;28;19914;-70
2022/08/04 13:36:58;;;;;;;;;;;30.90;99.90;;;;;;5089828;28;20296;-68
2022/08/04 13:39:24;;;;;;;;;;;31.00;99.90;;;;;;5094232;28;19912;-69
2022/08/04 13:41:52;;;;;;;;;;;31.10;99.90;;;;;;5110137;28;20372;-69
2022/08/04 13:44:36;;;;;;;;;;;31.20;99.90;;;;;;5111918;28;19908;-70
2022/08/04 13:47:07;;;;;;;;;;;31.30;99.90;;;;;;5102890;28;19936;-69
2022/08/04 13:49:33;;;;;;;;;;;31.30;99.90;;;;;;5104287;28;19962;-69
2022/08/04 13:52:00;;;;;;;;;;;31.30;99.90;;;;;;5092236;28;20426;-68
2022/08/04 13:54:42;;;;;;;;;;;31.50;99.90;;;;;;5090214;28;19951;-72
2022/08/04 13:57:14;;;;;;;;;;;31.50;99.90;;;;;;5081144;28;19999;-72
2022/08/04 13:59:43;;;;;;;;;;;31.50;99.90;;;;;;5101238;28;19916;-74
2022/08/04 14:02:13;;;;;;;;;;;31.50;99.90;;;;;;5089991;28;19912;-74
2022/08/04 14:04:48;;;;;;;;;;;31.50;99.90;;;;;;5092958;28;20369;-72
2022/08/04 14:07:14;;;;;;;;;;;31.60;99.90;;;;;;5098840;28;19916;-74
2022/08/04 14:09:40;;;;;;;;;;;31.60;99.90;;;;;;5087256;28;19912;-69
2022/08/04 14:12:07;;;;;;;;;;;31.60;99.90;;;;;;5088961;28;20003;-68
2022/08/04 14:14:36;;;;;;;;;;;31.50;99.90;;;;;;5099808;28;19943;-67
2022/08/04 14:17:08;;;;;;;;;;;31.60;99.90;;;;;;5097250;28;19934;-72
2022/08/04 14:19:49;;;;;;;;;;;31.60;99.90;;;;;;5087892;28;19912;-71
2022/08/04 14:22:24;;;;;;;;;;;31.60;99.90;;;;;;5076583;28;19916;-69
2022/08/04 14:25:10;;;;;;;;;;;31.70;99.90;;;;;;5078550;28;19972;-74
2022/08/04 14:27:45;;;;;;;;;;;31.60;99.90;;;;;;5073031;28;19966;-72
2022/08/04 14:30:20;;;;;;;;;;;31.60;99.90;;;;;;5103801;28;20006;-70
2022/08/04 14:32:56;;;;;;;;;;;31.40;99.90;;;;;;5100506;28;20171;-71
2022/08/04 14:35:22;;;;;;;;;;;31.10;99.90;;;;;;5100476;28;20398;-73
2022/08/04 14:38:17;;;;;;;;;;;31.00;99.90;;;;;;5091398;28;19957;-72
2022/08/04 14:40:44;;;;;;;;;;;31.00;99.90;;;;;;5078234;28;19912;-69
2022/08/04 14:43:10;;;;;;;;;;;30.90;99.90;;;;;;5095225;28;19931;-71
2022/08/04 14:45:36;;;;;;;;;;;30.80;99.90;;;;;;5099478;28;19916;-70
2022/08/04 14:48:06;;;;;;;;;;;30.90;99.90;;;;;;5101363;28;19916;-72